sensor_id;sensor_type;location;lat;lon;timestamp;P1;durP1;ratioP1;P2;durP2;ratioP2
14603;SDS011;7388;51.078;13.740;2022-08-21T00:00:47;26.63;;;14.83;;
14603;SDS011;7388;51.078;13.740;2022-08-21T00:03:14;23.03;;;15.37;;
14603;SDS011;7388;51.078;13.740;2022-08-21T00:05:41;23.60;;;15.50;;
14603;SDS011;7388;51.078;13.740;2022-08-21T00:08:14;24.97;;;17.10;;
14603;SDS011;7388;51.078;13.740;2022-08-21T00:10:44;23.87;;;15.50;;
14603;SDS011;7388;51.078;13.740;2022-08-21T00:13:11;20.67;;;15.10;;
14603;SDS011;7388;51.078;13.740;2022-08-21T00:15:38;23.03;;;15.20;;
14603;SDS011;7388;51.078;13.740;2022-08-21T00:18:06;20.33;;;14.63;;
14603;SDS011;7388;51.078;13.740;2022-08-21T00:20:33;27.50;;;16.40;;
14603;SDS011;7388;51.078;13.740;2022-08-21T00:22:59;23.37;;;14.47;;
14603;SDS011;7388;51.078;13.740;2022-08-21T00:25:26;22.80;;;15.47;;
14603;SDS011;7388;51.078;13.740;2022-08-21T00:27:53;28.23;;;17.30;;
14603;SDS011;7388;51.078;13.740;2022-08-21T00:30:20;23.70;;;16.73;;
14603;SDS011;7388;51.078;13.740;2022-08-21T00:32:47;25.00;;;16.00;;
14603;SDS011;7388;51.078;13.740;2022-08-21T00:35:14;22.30;;;14.90;;
14603;SDS011;7388;51.078;13.740;2022-08-21T00:37:42;24.10;;;14.70;;
14603;SDS011;7388;51.078;13.740;2022-08-21T00:40:10;19.27;;;14.57;;
14603;SDS011;7388;51.078;13.740;2022-08-21T00:42:38;21.13;;;14.07;;
14603;SDS011;7388;51.078;13.740;2022-08-21T00:45:05;19.43;;;14.70;;
14603;SDS011;7388;51.078;13.740;2022-08-21T00:47:31;24.33;;;16.57;;
14603;SDS011;7388;51.078;13.740;2022-08-21T00:49:57;22.17;;;14.13;;
14603;SDS011;7388;51.078;13.740;2022-08-21T00:52:25;21.07;;;13.83;;
14603;SDS011;7388;51.078;13.740;2022-08-21T00:54:55;22.90;;;15.00;;
14603;SDS011;7388;51.078;13.740;2022-08-21T00:57:24;24.63;;;15.47;;
14603;SDS011;7388;51.078;13.740;2022-08-21T00:59:56;19.00;;;14.10;;
14603;SDS011;7388;51.078;13.740;2022-08-21T01:02:24;22.20;;;14.83;;
14603;SDS011;7388;51.078;13.740;2022-08-21T01:04:50;25.43;;;16.00;;
14603;SDS011;7388;51.078;13.740;2022-08-21T01:07:16;23.83;;;15.60;;
14603;SDS011;7388;51.078;13.740;2022-08-21T01:09:44;24.53;;;16.87;;
14603;SDS011;7388;51.078;13.740;2022-08-21T01:12:12;28.33;;;19.30;;
14603;SDS011;7388;51.078;13.740;2022-08-21T01:14:38;27.70;;;19.60;;
14603;SDS011;7388;51.078;13.740;2022-08-21T01:17:08;24.40;;;14.07;;
14603;SDS011;7388;51.078;13.740;2022-08-21T01:19:36;17.50;;;13.10;;
14603;SDS011;7388;51.078;13.740;2022-08-21T01:22:02;18.30;;;13.77;;
14603;SDS011;7388;51.078;13.740;2022-08-21T01:24:28;19.57;;;14.70;;
14603;SDS011;7388;51.078;13.740;2022-08-21T01:26:56;14.80;;;10.00;;
14603;SDS011;7388;51.078;13.740;2022-08-21T01:32:04;13.87;;;10.13;;
14603;SDS011;7388;51.078;13.740;2022-08-21T01:34:40;11.03;;;8.70;;
14603;SDS011;7388;51.078;13.740;2022-08-21T01:37:08;11.20;;;8.37;;
14603;SDS011;7388;51.078;13.740;2022-08-21T01:39:34;10.43;;;8.00;;
14603;SDS011;7388;51.078;13.740;2022-08-21T01:42:00;13.70;;;8.77;;
14603;SDS011;7388;51.078;13.740;2022-08-21T01:44:27;14.60;;;7.90;;
14603;SDS011;7388;51.078;13.740;2022-08-21T01:46:53;10.50;;;7.90;;
14603;SDS011;7388;51.078;13.740;2022-08-21T01:49:19;12.80;;;7.80;;
14603;SDS011;7388;51.078;13.740;2022-08-21T01:51:45;11.30;;;8.37;;
14603;SDS011;7388;51.078;13.740;2022-08-21T01:54:11;11.70;;;8.03;;
14603;SDS011;7388;51.078;13.740;2022-08-21T01:56:37;13.60;;;8.43;;
14603;SDS011;7388;51.078;13.740;2022-08-21T01:59:05;10.03;;;8.03;;
14603;SDS011;7388;51.078;13.740;2022-08-21T02:01:31;11.37;;;8.13;;
14603;SDS011;7388;51.078;13.740;2022-08-21T02:03:57;9.90;;;7.20;;
14603;SDS011;7388;51.078;13.740;2022-08-21T02:06:24;10.50;;;7.80;;
14603;SDS011;7388;51.078;13.740;2022-08-21T02:08:51;10.77;;;7.40;;
14603;SDS011;7388;51.078;13.740;2022-08-21T02:11:17;13.70;;;7.80;;
14603;SDS011;7388;51.078;13.740;2022-08-21T02:13:43;10.73;;;7.53;;
14603;SDS011;7388;51.078;13.740;2022-08-21T02:16:09;10.53;;;7.77;;
14603;SDS011;7388;51.078;13.740;2022-08-21T02:18:36;10.27;;;6.43;;
14603;SDS011;7388;51.078;13.740;2022-08-21T02:21:02;11.20;;;7.03;;
14603;SDS011;7388;51.078;13.740;2022-08-21T02:23:28;9.90;;;7.50;;
14603;SDS011;7388;51.078;13.740;2022-08-21T02:25:56;9.30;;;6.60;;
14603;SDS011;7388;51.078;13.740;2022-08-21T02:28:24;7.40;;;5.80;;
14603;SDS011;7388;51.078;13.740;2022-08-21T02:30:50;9.67;;;6.33;;
14603;SDS011;7388;51.078;13.740;2022-08-21T02:33:17;9.10;;;6.40;;
14603;SDS011;7388;51.078;13.740;2022-08-21T02:35:44;8.90;;;6.60;;
14603;SDS011;7388;51.078;13.740;2022-08-21T02:38:13;8.77;;;6.10;;
14603;SDS011;7388;51.078;13.740;2022-08-21T02:40:42;8.27;;;6.37;;
14603;SDS011;7388;51.078;13.740;2022-08-21T02:43:10;9.77;;;7.47;;
14603;SDS011;7388;51.078;13.740;2022-08-21T02:45:37;9.90;;;6.10;;
14603;SDS011;7388;51.078;13.740;2022-08-21T02:48:05;10.90;;;6.83;;
14603;SDS011;7388;51.078;13.740;2022-08-21T02:50:43;9.77;;;6.97;;
14603;SDS011;7388;51.078;13.740;2022-08-21T02:53:11;7.57;;;5.40;;
14603;SDS011;7388;51.078;13.740;2022-08-21T02:55:41;8.80;;;6.50;;
14603;SDS011;7388;51.078;13.740;2022-08-21T02:58:12;10.23;;;7.93;;
14603;SDS011;7388;51.078;13.740;2022-08-21T03:00:40;10.53;;;7.27;;
14603;SDS011;7388;51.078;13.740;2022-08-21T03:03:06;10.10;;;6.10;;
14603;SDS011;7388;51.078;13.740;2022-08-21T03:05:33;10.20;;;6.50;;
14603;SDS011;7388;51.078;13.740;2022-08-21T03:08:01;11.87;;;7.90;;
14603;SDS011;7388;51.078;13.740;2022-08-21T03:10:27;10.17;;;7.83;;
14603;SDS011;7388;51.078;13.740;2022-08-21T03:12:55;8.50;;;7.43;;
14603;SDS011;7388;51.078;13.740;2022-08-21T03:15:22;9.63;;;6.80;;
14603;SDS011;7388;51.078;13.740;2022-08-21T03:17:49;10.87;;;7.40;;
14603;SDS011;7388;51.078;13.740;2022-08-21T03:20:16;9.20;;;6.87;;
14603;SDS011;7388;51.078;13.740;2022-08-21T03:22:43;12.10;;;7.60;;
14603;SDS011;7388;51.078;13.740;2022-08-21T03:25:09;10.77;;;6.90;;
14603;SDS011;7388;51.078;13.740;2022-08-21T03:27:36;10.03;;;7.50;;
14603;SDS011;7388;51.078;13.740;2022-08-21T03:30:02;10.40;;;6.40;;
14603;SDS011;7388;51.078;13.740;2022-08-21T03:32:30;9.13;;;6.70;;
14603;SDS011;7388;51.078;13.740;2022-08-21T03:34:57;9.37;;;7.27;;
14603;SDS011;7388;51.078;13.740;2022-08-21T03:37:23;10.83;;;7.10;;
14603;SDS011;7388;51.078;13.740;2022-08-21T03:39:49;11.83;;;8.87;;
14603;SDS011;7388;51.078;13.740;2022-08-21T03:42:16;13.40;;;8.73;;
14603;SDS011;7388;51.078;13.740;2022-08-21T03:44:42;19.27;;;8.63;;
14603;SDS011;7388;51.078;13.740;2022-08-21T03:47:08;10.47;;;8.00;;
14603;SDS011;7388;51.078;13.740;2022-08-21T03:49:35;10.47;;;7.57;;
14603;SDS011;7388;51.078;13.740;2022-08-21T03:52:01;13.50;;;8.23;;
14603;SDS011;7388;51.078;13.740;2022-08-21T03:54:28;12.57;;;8.53;;
14603;SDS011;7388;51.078;13.740;2022-08-21T03:56:54;16.03;;;7.30;;
14603;SDS011;7388;51.078;13.740;2022-08-21T03:59:20;11.87;;;8.70;;
14603;SDS011;7388;51.078;13.740;2022-08-21T04:01:52;9.40;;;7.80;;
14603;SDS011;7388;51.078;13.740;2022-08-21T04:04:24;12.43;;;10.10;;
14603;SDS011;7388;51.078;13.740;2022-08-21T04:06:51;11.53;;;8.40;;
14603;SDS011;7388;51.078;13.740;2022-08-21T04:09:18;14.67;;;10.17;;
14603;SDS011;7388;51.078;13.740;2022-08-21T04:11:44;11.83;;;8.10;;
14603;SDS011;7388;51.078;13.740;2022-08-21T04:14:11;12.20;;;9.43;;
14603;SDS011;7388;51.078;13.740;2022-08-21T04:16:39;12.03;;;8.43;;
14603;SDS011;7388;51.078;13.740;2022-08-21T04:19:06;13.57;;;9.50;;
14603;SDS011;7388;51.078;13.740;2022-08-21T04:21:32;11.77;;;8.77;;
14603;SDS011;7388;51.078;13.740;2022-08-21T04:23:58;15.43;;;9.67;;
14603;SDS011;7388;51.078;13.740;2022-08-21T04:26:24;11.03;;;8.17;;
14603;SDS011;7388;51.078;13.740;2022-08-21T04:28:51;11.83;;;9.60;;
14603;SDS011;7388;51.078;13.740;2022-08-21T04:31:17;12.13;;;8.27;;
14603;SDS011;7388;51.078;13.740;2022-08-21T04:33:43;11.67;;;8.17;;
14603;SDS011;7388;51.078;13.740;2022-08-21T04:36:10;11.00;;;7.73;;
14603;SDS011;7388;51.078;13.740;2022-08-21T04:38:36;11.30;;;8.03;;
14603;SDS011;7388;51.078;13.740;2022-08-21T04:41:02;13.40;;;8.80;;
14603;SDS011;7388;51.078;13.740;2022-08-21T04:43:30;12.27;;;8.47;;
14603;SDS011;7388;51.078;13.740;2022-08-21T04:45:56;10.07;;;8.17;;
14603;SDS011;7388;51.078;13.740;2022-08-21T04:48:22;10.17;;;7.57;;
14603;SDS011;7388;51.078;13.740;2022-08-21T04:53:26;11.77;;;8.20;;
14603;SDS011;7388;51.078;13.740;2022-08-21T04:55:53;12.20;;;9.83;;
14603;SDS011;7388;51.078;13.740;2022-08-21T04:58:22;12.30;;;9.20;;
14603;SDS011;7388;51.078;13.740;2022-08-21T05:00:52;14.87;;;10.60;;
14603;SDS011;7388;51.078;13.740;2022-08-21T05:03:20;12.73;;;9.00;;
14603;SDS011;7388;51.078;13.740;2022-08-21T05:05:47;14.00;;;9.20;;
14603;SDS011;7388;51.078;13.740;2022-08-21T05:08:16;12.10;;;9.00;;
14603;SDS011;7388;51.078;13.740;2022-08-21T05:10:45;13.80;;;8.50;;
14603;SDS011;7388;51.078;13.740;2022-08-21T05:13:11;11.30;;;8.60;;
14603;SDS011;7388;51.078;13.740;2022-08-21T05:15:38;13.37;;;9.47;;
14603;SDS011;7388;51.078;13.740;2022-08-21T05:18:05;14.30;;;9.20;;
14603;SDS011;7388;51.078;13.740;2022-08-21T05:20:31;9.30;;;7.33;;
14603;SDS011;7388;51.078;13.740;2022-08-21T05:22:59;10.67;;;8.30;;
14603;SDS011;7388;51.078;13.740;2022-08-21T05:25:25;11.03;;;7.97;;
14603;SDS011;7388;51.078;13.740;2022-08-21T05:27:51;11.00;;;8.90;;
14603;SDS011;7388;51.078;13.740;2022-08-21T05:30:18;12.73;;;8.27;;
14603;SDS011;7388;51.078;13.740;2022-08-21T05:32:45;12.33;;;9.00;;
14603;SDS011;7388;51.078;13.740;2022-08-21T05:35:11;11.60;;;8.07;;
14603;SDS011;7388;51.078;13.740;2022-08-21T05:37:37;11.67;;;7.80;;
14603;SDS011;7388;51.078;13.740;2022-08-21T05:40:03;10.50;;;7.70;;
14603;SDS011;7388;51.078;13.740;2022-08-21T05:42:31;10.47;;;8.97;;
14603;SDS011;7388;51.078;13.740;2022-08-21T05:44:56;11.50;;;8.73;;
14603;SDS011;7388;51.078;13.740;2022-08-21T05:47:22;13.13;;;8.33;;
14603;SDS011;7388;51.078;13.740;2022-08-21T05:49:48;11.50;;;8.40;;
14603;SDS011;7388;51.078;13.740;2022-08-21T05:52:18;12.67;;;8.10;;
14603;SDS011;7388;51.078;13.740;2022-08-21T05:54:47;11.97;;;9.23;;
14603;SDS011;7388;51.078;13.740;2022-08-21T05:57:13;10.97;;;8.40;;
14603;SDS011;7388;51.078;13.740;2022-08-21T05:59:39;19.37;;;11.57;;
14603;SDS011;7388;51.078;13.740;2022-08-21T06:02:05;16.40;;;12.37;;
14603;SDS011;7388;51.078;13.740;2022-08-21T06:04:36;18.07;;;11.30;;
14603;SDS011;7388;51.078;13.740;2022-08-21T06:07:03;19.60;;;14.23;;
14603;SDS011;7388;51.078;13.740;2022-08-21T06:09:29;15.43;;;11.67;;
14603;SDS011;7388;51.078;13.740;2022-08-21T06:11:55;17.10;;;11.83;;
14603;SDS011;7388;51.078;13.740;2022-08-21T06:14:21;16.57;;;12.30;;
14603;SDS011;7388;51.078;13.740;2022-08-21T06:16:46;15.33;;;10.50;;
14603;SDS011;7388;51.078;13.740;2022-08-21T06:19:12;16.17;;;12.23;;
14603;SDS011;7388;51.078;13.740;2022-08-21T06:21:38;18.63;;;13.80;;
14603;SDS011;7388;51.078;13.740;2022-08-21T06:24:04;16.50;;;12.40;;
14603;SDS011;7388;51.078;13.740;2022-08-21T06:26:32;15.50;;;12.77;;
14603;SDS011;7388;51.078;13.740;2022-08-21T06:28:58;14.93;;;12.00;;
14603;SDS011;7388;51.078;13.740;2022-08-21T06:31:24;21.00;;;12.80;;
14603;SDS011;7388;51.078;13.740;2022-08-21T06:33:52;13.57;;;11.07;;
14603;SDS011;7388;51.078;13.740;2022-08-21T06:36:18;16.60;;;11.77;;
14603;SDS011;7388;51.078;13.740;2022-08-21T06:38:45;17.47;;;14.47;;
14603;SDS011;7388;51.078;13.740;2022-08-21T06:41:12;17.87;;;12.47;;
14603;SDS011;7388;51.078;13.740;2022-08-21T06:43:39;19.43;;;12.37;;
14603;SDS011;7388;51.078;13.740;2022-08-21T06:46:04;15.10;;;11.97;;
14603;SDS011;7388;51.078;13.740;2022-08-21T06:48:31;16.57;;;11.83;;
14603;SDS011;7388;51.078;13.740;2022-08-21T06:50:58;14.63;;;11.30;;
14603;SDS011;7388;51.078;13.740;2022-08-21T06:53:25;15.50;;;12.70;;
14603;SDS011;7388;51.078;13.740;2022-08-21T06:55:51;15.37;;;10.77;;
14603;SDS011;7388;51.078;13.740;2022-08-21T06:58:17;16.40;;;13.20;;
14603;SDS011;7388;51.078;13.740;2022-08-21T07:00:45;17.97;;;12.87;;
14603;SDS011;7388;51.078;13.740;2022-08-21T07:03:55;20.03;;;13.57;;
14603;SDS011;7388;51.078;13.740;2022-08-21T07:06:04;15.23;;;11.57;;
14603;SDS011;7388;51.078;13.740;2022-08-21T07:08:31;21.33;;;12.70;;
14603;SDS011;7388;51.078;13.740;2022-08-21T07:10:58;14.60;;;11.83;;
14603;SDS011;7388;51.078;13.740;2022-08-21T07:13:25;16.87;;;12.97;;
14603;SDS011;7388;51.078;13.740;2022-08-21T07:15:51;16.50;;;12.50;;
14603;SDS011;7388;51.078;13.740;2022-08-21T07:18:17;16.50;;;12.67;;
14603;SDS011;7388;51.078;13.740;2022-08-21T07:20:44;14.83;;;11.17;;
14603;SDS011;7388;51.078;13.740;2022-08-21T07:23:21;16.47;;;13.00;;
14603;SDS011;7388;51.078;13.740;2022-08-21T07:25:51;20.00;;;12.63;;
14603;SDS011;7388;51.078;13.740;2022-08-21T07:28:17;15.43;;;11.87;;
14603;SDS011;7388;51.078;13.740;2022-08-21T07:30:43;13.67;;;11.20;;
14603;SDS011;7388;51.078;13.740;2022-08-21T07:33:10;14.70;;;12.70;;
14603;SDS011;7388;51.078;13.740;2022-08-21T07:35:36;15.40;;;12.70;;
14603;SDS011;7388;51.078;13.740;2022-08-21T07:38:02;14.47;;;11.60;;
14603;SDS011;7388;51.078;13.740;2022-08-21T07:40:29;14.97;;;11.80;;
14603;SDS011;7388;51.078;13.740;2022-08-21T07:42:54;21.50;;;12.00;;
14603;SDS011;7388;51.078;13.740;2022-08-21T07:45:21;15.60;;;12.07;;
14603;SDS011;7388;51.078;13.740;2022-08-21T07:47:48;14.60;;;11.80;;
14603;SDS011;7388;51.078;13.740;2022-08-21T07:50:14;15.43;;;12.50;;
14603;SDS011;7388;51.078;13.740;2022-08-21T07:52:41;11.83;;;10.03;;
14603;SDS011;7388;51.078;13.740;2022-08-21T07:55:09;20.17;;;11.73;;
14603;SDS011;7388;51.078;13.740;2022-08-21T07:57:38;13.53;;;11.30;;
14603;SDS011;7388;51.078;13.740;2022-08-21T08:00:04;14.83;;;10.90;;
14603;SDS011;7388;51.078;13.740;2022-08-21T08:02:32;16.23;;;12.57;;
14603;SDS011;7388;51.078;13.740;2022-08-21T08:04:59;14.03;;;12.00;;
14603;SDS011;7388;51.078;13.740;2022-08-21T08:07:26;15.40;;;11.43;;
14603;SDS011;7388;51.078;13.740;2022-08-21T08:09:52;16.57;;;12.50;;
14603;SDS011;7388;51.078;13.740;2022-08-21T08:12:17;14.63;;;10.73;;
14603;SDS011;7388;51.078;13.740;2022-08-21T08:14:43;13.77;;;10.97;;
14603;SDS011;7388;51.078;13.740;2022-08-21T08:17:09;14.47;;;10.40;;
14603;SDS011;7388;51.078;13.740;2022-08-21T08:19:35;16.03;;;11.70;;
14603;SDS011;7388;51.078;13.740;2022-08-21T08:22:01;14.73;;;11.80;;
14603;SDS011;7388;51.078;13.740;2022-08-21T08:24:40;14.10;;;11.23;;
14603;SDS011;7388;51.078;13.740;2022-08-21T08:27:06;14.27;;;11.00;;
14603;SDS011;7388;51.078;13.740;2022-08-21T08:29:32;13.50;;;10.30;;
14603;SDS011;7388;51.078;13.740;2022-08-21T08:31:57;14.63;;;10.70;;
14603;SDS011;7388;51.078;13.740;2022-08-21T08:34:24;12.50;;;10.10;;
14603;SDS011;7388;51.078;13.740;2022-08-21T08:36:49;11.90;;;10.17;;
14603;SDS011;7388;51.078;13.740;2022-08-21T08:39:15;11.83;;;8.40;;
14603;SDS011;7388;51.078;13.740;2022-08-21T08:41:41;11.10;;;9.53;;
14603;SDS011;7388;51.078;13.740;2022-08-21T08:44:10;11.73;;;9.50;;
14603;SDS011;7388;51.078;13.740;2022-08-21T08:46:38;11.27;;;9.67;;
14603;SDS011;7388;51.078;13.740;2022-08-21T08:52:05;11.97;;;9.83;;
14603;SDS011;7388;51.078;13.740;2022-08-21T08:55:07;13.10;;;9.00;;
14603;SDS011;7388;51.078;13.740;2022-08-21T08:57:31;12.20;;;8.80;;
14603;SDS011;7388;51.078;13.740;2022-08-21T08:59:59;10.13;;;9.07;;
14603;SDS011;7388;51.078;13.740;2022-08-21T09:02:28;10.70;;;8.60;;
14603;SDS011;7388;51.078;13.740;2022-08-21T09:04:54;9.10;;;6.63;;
14603;SDS011;7388;51.078;13.740;2022-08-21T09:07:38;9.20;;;7.17;;
14603;SDS011;7388;51.078;13.740;2022-08-21T09:10:18;10.53;;;8.00;;
14603;SDS011;7388;51.078;13.740;2022-08-21T09:12:56;9.80;;;7.20;;
14603;SDS011;7388;51.078;13.740;2022-08-21T09:18:27;9.20;;;8.27;;
14603;SDS011;7388;51.078;13.740;2022-08-21T09:26:21;10.43;;;5.87;;
14603;SDS011;7388;51.078;13.740;2022-08-21T09:28:54;6.53;;;4.97;;
14603;SDS011;7388;51.078;13.740;2022-08-21T09:31:23;6.80;;;4.30;;
14603;SDS011;7388;51.078;13.740;2022-08-21T09:34:02;6.93;;;5.30;;
14603;SDS011;7388;51.078;13.740;2022-08-21T09:39:04;10.30;;;5.20;;
14603;SDS011;7388;51.078;13.740;2022-08-21T09:41:32;6.57;;;4.20;;
14603;SDS011;7388;51.078;13.740;2022-08-21T09:44:00;5.93;;;4.43;;
14603;SDS011;7388;51.078;13.740;2022-08-21T09:46:27;7.20;;;4.40;;
14603;SDS011;7388;51.078;13.740;2022-08-21T09:49:00;6.67;;;5.00;;
14603;SDS011;7388;51.078;13.740;2022-08-21T09:51:29;5.53;;;4.20;;
14603;SDS011;7388;51.078;13.740;2022-08-21T09:53:58;5.17;;;3.70;;
14603;SDS011;7388;51.078;13.740;2022-08-21T09:59:38;6.60;;;3.03;;
14603;SDS011;7388;51.078;13.740;2022-08-21T10:04:52;4.70;;;2.90;;
14603;SDS011;7388;51.078;13.740;2022-08-21T10:07:26;6.80;;;3.97;;
14603;SDS011;7388;51.078;13.740;2022-08-21T10:10:01;7.60;;;3.93;;
14603;SDS011;7388;51.078;13.740;2022-08-21T10:12:36;4.50;;;3.00;;
14603;SDS011;7388;51.078;13.740;2022-08-21T10:18:22;3.63;;;2.90;;
14603;SDS011;7388;51.078;13.740;2022-08-21T10:21:21;3.60;;;2.57;;
14603;SDS011;7388;51.078;13.740;2022-08-21T10:29:57;5.47;;;2.87;;
14603;SDS011;7388;51.078;13.740;2022-08-21T10:32:41;5.83;;;2.83;;
14603;SDS011;7388;51.078;13.740;2022-08-21T10:35:11;3.23;;;2.13;;
14603;SDS011;7388;51.078;13.740;2022-08-21T10:37:41;5.13;;;3.00;;
14603;SDS011;7388;51.078;13.740;2022-08-21T10:40:29;4.30;;;2.73;;
14603;SDS011;7388;51.078;13.740;2022-08-21T10:46:41;5.37;;;3.00;;
14603;SDS011;7388;51.078;13.740;2022-08-21T10:52:45;3.13;;;2.23;;
14603;SDS011;7388;51.078;13.740;2022-08-21T10:55:34;5.57;;;3.23;;
14603;SDS011;7388;51.078;13.740;2022-08-21T10:58:22;5.23;;;3.47;;
14603;SDS011;7388;51.078;13.740;2022-08-21T11:01:10;3.87;;;2.30;;
14603;SDS011;7388;51.078;13.740;2022-08-21T11:04:51;5.27;;;2.27;;
14603;SDS011;7388;51.078;13.740;2022-08-21T11:07:02;4.40;;;2.77;;
14603;SDS011;7388;51.078;13.740;2022-08-21T11:09:45;3.60;;;2.30;;
14603;SDS011;7388;51.078;13.740;2022-08-21T11:12:23;6.33;;;3.30;;
14603;SDS011;7388;51.078;13.740;2022-08-21T11:20:46;3.87;;;2.50;;
14603;SDS011;7388;51.078;13.740;2022-08-21T11:23:42;4.63;;;2.03;;
14603;SDS011;7388;51.078;13.740;2022-08-21T11:29:21;6.23;;;3.00;;
14603;SDS011;7388;51.078;13.740;2022-08-21T11:43:40;5.77;;;2.73;;
14603;SDS011;7388;51.078;13.740;2022-08-21T11:54:29;3.50;;;1.67;;
14603;SDS011;7388;51.078;13.740;2022-08-21T11:57:22;6.53;;;1.87;;
14603;SDS011;7388;51.078;13.740;2022-08-21T12:00:03;2.80;;;1.77;;
14603;SDS011;7388;51.078;13.740;2022-08-21T12:02:40;3.60;;;1.97;;
14603;SDS011;7388;51.078;13.740;2022-08-21T12:05:22;2.87;;;1.53;;
14603;SDS011;7388;51.078;13.740;2022-08-21T12:08:00;4.93;;;2.20;;
14603;SDS011;7388;51.078;13.740;2022-08-21T12:10:38;3.90;;;1.90;;
14603;SDS011;7388;51.078;13.740;2022-08-21T12:13:23;9.00;;;2.00;;
14603;SDS011;7388;51.078;13.740;2022-08-21T12:16:14;4.73;;;1.77;;
14603;SDS011;7388;51.078;13.740;2022-08-21T12:19:01;4.23;;;1.90;;
14603;SDS011;7388;51.078;13.740;2022-08-21T12:21:33;3.37;;;1.47;;
14603;SDS011;7388;51.078;13.740;2022-08-21T12:26:49;3.27;;;1.77;;
14603;SDS011;7388;51.078;13.740;2022-08-21T12:32:02;3.60;;;2.40;;
14603;SDS011;7388;51.078;13.740;2022-08-21T12:40:10;4.40;;;1.50;;
14603;SDS011;7388;51.078;13.740;2022-08-21T12:42:44;2.60;;;1.70;;
14603;SDS011;7388;51.078;13.740;2022-08-21T12:48:10;4.17;;;1.70;;
14603;SDS011;7388;51.078;13.740;2022-08-21T12:50:48;4.53;;;1.60;;
14603;SDS011;7388;51.078;13.740;2022-08-21T12:53:24;3.70;;;1.73;;
14603;SDS011;7388;51.078;13.740;2022-08-21T12:55:53;3.23;;;1.60;;
14603;SDS011;7388;51.078;13.740;2022-08-21T12:58:25;2.73;;;1.33;;
14603;SDS011;7388;51.078;13.740;2022-08-21T13:01:34;2.83;;;1.43;;
14603;SDS011;7388;51.078;13.740;2022-08-21T13:04:13;5.93;;;1.93;;
14603;SDS011;7388;51.078;13.740;2022-08-21T13:06:46;5.40;;;1.90;;
14603;SDS011;7388;51.078;13.740;2022-08-21T13:09:15;3.70;;;1.80;;
14603;SDS011;7388;51.078;13.740;2022-08-21T13:11:45;2.60;;;1.33;;
14603;SDS011;7388;51.078;13.740;2022-08-21T13:14:36;6.27;;;2.20;;
14603;SDS011;7388;51.078;13.740;2022-08-21T13:17:06;3.90;;;1.80;;
14603;SDS011;7388;51.078;13.740;2022-08-21T13:19:33;2.87;;;1.20;;
14603;SDS011;7388;51.078;13.740;2022-08-21T13:21:59;3.80;;;1.83;;
14603;SDS011;7388;51.078;13.740;2022-08-21T13:26:54;2.63;;;1.33;;
14603;SDS011;7388;51.078;13.740;2022-08-21T13:29:23;3.80;;;1.60;;
14603;SDS011;7388;51.078;13.740;2022-08-21T13:31:54;5.57;;;1.77;;
14603;SDS011;7388;51.078;13.740;2022-08-21T13:34:24;3.53;;;1.70;;
14603;SDS011;7388;51.078;13.740;2022-08-21T13:36:55;4.00;;;2.00;;
14603;SDS011;7388;51.078;13.740;2022-08-21T13:39:23;6.73;;;2.03;;
14603;SDS011;7388;51.078;13.740;2022-08-21T13:41:51;5.83;;;2.30;;
14603;SDS011;7388;51.078;13.740;2022-08-21T13:46:57;2.30;;;1.47;;
14603;SDS011;7388;51.078;13.740;2022-08-21T13:49:28;3.93;;;1.43;;
14603;SDS011;7388;51.078;13.740;2022-08-21T13:51:57;2.40;;;1.57;;
14603;SDS011;7388;51.078;13.740;2022-08-21T13:54:27;3.53;;;1.70;;
14603;SDS011;7388;51.078;13.740;2022-08-21T13:56:59;2.67;;;1.20;;
14603;SDS011;7388;51.078;13.740;2022-08-21T13:59:43;3.23;;;1.40;;
14603;SDS011;7388;51.078;13.740;2022-08-21T14:02:16;3.50;;;1.83;;
14603;SDS011;7388;51.078;13.740;2022-08-21T14:04:56;2.70;;;1.70;;
14603;SDS011;7388;51.078;13.740;2022-08-21T14:09:56;3.30;;;1.67;;
14603;SDS011;7388;51.078;13.740;2022-08-21T14:15:14;5.63;;;2.00;;
14603;SDS011;7388;51.078;13.740;2022-08-21T14:17:44;2.70;;;1.70;;
14603;SDS011;7388;51.078;13.740;2022-08-21T14:20:12;5.17;;;1.63;;
14603;SDS011;7388;51.078;13.740;2022-08-21T14:22:59;3.40;;;1.33;;
14603;SDS011;7388;51.078;13.740;2022-08-21T14:30:21;4.77;;;2.00;;
14603;SDS011;7388;51.078;13.740;2022-08-21T14:32:55;6.60;;;2.10;;
14603;SDS011;7388;51.078;13.740;2022-08-21T14:35:22;4.53;;;2.50;;
14603;SDS011;7388;51.078;13.740;2022-08-21T14:37:48;3.53;;;2.07;;
14603;SDS011;7388;51.078;13.740;2022-08-21T14:40:18;2.80;;;1.67;;
14603;SDS011;7388;51.078;13.740;2022-08-21T14:42:45;3.17;;;1.87;;
14603;SDS011;7388;51.078;13.740;2022-08-21T14:45:16;4.57;;;1.70;;
14603;SDS011;7388;51.078;13.740;2022-08-21T14:47:44;4.67;;;2.17;;
14603;SDS011;7388;51.078;13.740;2022-08-21T14:50:11;2.50;;;1.57;;
14603;SDS011;7388;51.078;13.740;2022-08-21T14:52:38;2.80;;;1.77;;
14603;SDS011;7388;51.078;13.740;2022-08-21T14:55:06;2.47;;;1.30;;
14603;SDS011;7388;51.078;13.740;2022-08-21T14:57:35;4.03;;;2.17;;
14603;SDS011;7388;51.078;13.740;2022-08-21T15:00:03;3.00;;;1.23;;
14603;SDS011;7388;51.078;13.740;2022-08-21T15:02:30;3.47;;;1.53;;
14603;SDS011;7388;51.078;13.740;2022-08-21T15:04:55;3.00;;;1.50;;
14603;SDS011;7388;51.078;13.740;2022-08-21T15:07:21;3.13;;;1.50;;
14603;SDS011;7388;51.078;13.740;2022-08-21T15:09:47;2.83;;;1.57;;
14603;SDS011;7388;51.078;13.740;2022-08-21T15:12:13;5.23;;;2.80;;
14603;SDS011;7388;51.078;13.740;2022-08-21T15:14:39;4.53;;;1.77;;
14603;SDS011;7388;51.078;13.740;2022-08-21T15:17:06;4.07;;;1.63;;
14603;SDS011;7388;51.078;13.740;2022-08-21T15:19:34;2.90;;;1.80;;
14603;SDS011;7388;51.078;13.740;2022-08-21T15:22:00;2.50;;;1.27;;
14603;SDS011;7388;51.078;13.740;2022-08-21T15:24:26;3.17;;;1.33;;
14603;SDS011;7388;51.078;13.740;2022-08-21T15:26:53;4.47;;;1.70;;
14603;SDS011;7388;51.078;13.740;2022-08-21T15:29:20;2.67;;;1.60;;
14603;SDS011;7388;51.078;13.740;2022-08-21T15:31:50;4.00;;;1.50;;
14603;SDS011;7388;51.078;13.740;2022-08-21T15:34:18;4.10;;;1.33;;
14603;SDS011;7388;51.078;13.740;2022-08-21T15:36:45;3.80;;;1.40;;
14603;SDS011;7388;51.078;13.740;2022-08-21T15:39:11;6.60;;;1.37;;
14603;SDS011;7388;51.078;13.740;2022-08-21T15:41:37;2.77;;;1.60;;
14603;SDS011;7388;51.078;13.740;2022-08-21T15:44:02;4.63;;;1.67;;
14603;SDS011;7388;51.078;13.740;2022-08-21T15:46:28;4.37;;;1.80;;
14603;SDS011;7388;51.078;13.740;2022-08-21T15:48:54;2.97;;;1.40;;
14603;SDS011;7388;51.078;13.740;2022-08-21T15:51:20;5.10;;;1.63;;
14603;SDS011;7388;51.078;13.740;2022-08-21T15:53:46;2.67;;;1.43;;
14603;SDS011;7388;51.078;13.740;2022-08-21T15:56:21;3.40;;;1.10;;
14603;SDS011;7388;51.078;13.740;2022-08-21T15:58:48;5.20;;;2.10;;
14603;SDS011;7388;51.078;13.740;2022-08-21T16:01:15;3.60;;;1.87;;
14603;SDS011;7388;51.078;13.740;2022-08-21T16:03:42;3.60;;;2.00;;
14603;SDS011;7388;51.078;13.740;2022-08-21T16:06:11;3.50;;;1.43;;
14603;SDS011;7388;51.078;13.740;2022-08-21T16:08:36;3.50;;;1.50;;
14603;SDS011;7388;51.078;13.740;2022-08-21T16:11:02;3.10;;;1.40;;
14603;SDS011;7388;51.078;13.740;2022-08-21T16:13:29;6.50;;;1.60;;
14603;SDS011;7388;51.078;13.740;2022-08-21T16:16:01;3.30;;;1.70;;
14603;SDS011;7388;51.078;13.740;2022-08-21T16:18:27;2.97;;;1.53;;
14603;SDS011;7388;51.078;13.740;2022-08-21T16:20:53;3.47;;;1.53;;
14603;SDS011;7388;51.078;13.740;2022-08-21T16:23:19;2.67;;;1.30;;
14603;SDS011;7388;51.078;13.740;2022-08-21T16:25:44;3.27;;;1.70;;
14603;SDS011;7388;51.078;13.740;2022-08-21T16:28:12;2.70;;;1.30;;